<?xml version="1.0" encoding="UTF-8" ?>
<gpx version="1.0" xmlns:xsi="http://www.w3.org/2001/XMLSchema-instance"
	xmlns="http://www.topografix.com/GPX/1/0"
	xsi:schemaLocation="http://www.topografix.com/GPX/1/0 http://www.topografix.com/GPX/1/0/gpx.xsd"
	creator="https://www.pyrandonnees.fr">	<trk>
					<name>1255980-Circuit Ansabère</name>
					<trkseg>
				<trkpt lat="42.905510" lon="-0.691610">
					<ele>1194</ele>
					<time>2018-10-27T19:37:07Z</time>
				</trkpt>
				<trkpt lat="42.905320" lon="-0.692000">
					<ele>1200</ele>
					<time>2018-10-27T19:38:07Z</time>
				</trkpt>
				<trkpt lat="42.905050" lon="-0.692340">
					<ele>1201</ele>
					<time>2018-10-27T19:39:07Z</time>
				</trkpt>
				<trkpt lat="42.904720" lon="-0.692780">
					<ele>1205</ele>
					<time>2018-10-27T19:40:07Z</time>
				</trkpt>
				<trkpt lat="42.904530" lon="-0.693250">
					<ele>1209</ele>
					<time>2018-10-27T19:41:07Z</time>
				</trkpt>
				<trkpt lat="42.904200" lon="-0.693700">
					<ele>1205</ele>
					<time>2018-10-27T19:42:07Z</time>
				</trkpt>
				<trkpt lat="42.904060" lon="-0.693910">
					<ele>1208</ele>
					<time>2018-10-27T19:43:07Z</time>
				</trkpt>
				<trkpt lat="42.904190" lon="-0.694450">
					<ele>1214</ele>
					<time>2018-10-27T19:44:07Z</time>
				</trkpt>
				<trkpt lat="42.904110" lon="-0.694950">
					<ele>1220</ele>
					<time>2018-10-27T19:45:07Z</time>
				</trkpt>
				<trkpt lat="42.904130" lon="-0.695390">
					<ele>1226</ele>
					<time>2018-10-27T19:46:07Z</time>
				</trkpt>
				<trkpt lat="42.904130" lon="-0.696020">
					<ele>1234</ele>
					<time>2018-10-27T19:47:07Z</time>
				</trkpt>
				<trkpt lat="42.904330" lon="-0.696520">
					<ele>1249</ele>
					<time>2018-10-27T19:48:07Z</time>
				</trkpt>
				<trkpt lat="42.904200" lon="-0.697040">
					<ele>1250</ele>
					<time>2018-10-27T19:49:07Z</time>
				</trkpt>
				<trkpt lat="42.904420" lon="-0.697530">
					<ele>1267</ele>
					<time>2018-10-27T19:50:07Z</time>
				</trkpt>
				<trkpt lat="42.904560" lon="-0.697980">
					<ele>1279</ele>
					<time>2018-10-27T19:51:07Z</time>
				</trkpt>
				<trkpt lat="42.904510" lon="-0.698340">
					<ele>1282</ele>
					<time>2018-10-27T19:52:07Z</time>
				</trkpt>
				<trkpt lat="42.904710" lon="-0.698810">
					<ele>1297</ele>
					<time>2018-10-27T19:53:07Z</time>
				</trkpt>
				<trkpt lat="42.904670" lon="-0.699100">
					<ele>1300</ele>
					<time>2018-10-27T19:54:07Z</time>
				</trkpt>
				<trkpt lat="42.904580" lon="-0.699780">
					<ele>1307</ele>
					<time>2018-10-27T19:55:07Z</time>
				</trkpt>
				<trkpt lat="42.904450" lon="-0.700510">
					<ele>1316</ele>
					<time>2018-10-27T19:56:07Z</time>
				</trkpt>
				<trkpt lat="42.904380" lon="-0.701140">
					<ele>1324</ele>
					<time>2018-10-27T19:57:07Z</time>
				</trkpt>
				<trkpt lat="42.904420" lon="-0.701630">
					<ele>1333</ele>
					<time>2018-10-27T19:58:07Z</time>
				</trkpt>
				<trkpt lat="42.904290" lon="-0.702000">
					<ele>1338</ele>
					<time>2018-10-27T19:59:07Z</time>
				</trkpt>
				<trkpt lat="42.904360" lon="-0.702650">
					<ele>1353</ele>
					<time>2018-10-27T20:00:07Z</time>
				</trkpt>
				<trkpt lat="42.904510" lon="-0.703280">
					<ele>1365</ele>
					<time>2018-10-27T20:01:07Z</time>
				</trkpt>
				<trkpt lat="42.904360" lon="-0.703850">
					<ele>1368</ele>
					<time>2018-10-27T20:02:07Z</time>
				</trkpt>
				<trkpt lat="42.904350" lon="-0.704840">
					<ele>1374</ele>
					<time>2018-10-27T20:03:07Z</time>
				</trkpt>
				<trkpt lat="42.904150" lon="-0.705490">
					<ele>1370</ele>
					<time>2018-10-27T20:04:07Z</time>
				</trkpt>
				<trkpt lat="42.904200" lon="-0.706150">
					<ele>1366</ele>
					<time>2018-10-27T20:05:07Z</time>
				</trkpt>
				<trkpt lat="42.904260" lon="-0.706980">
					<ele>1364</ele>
					<time>2018-10-27T20:06:07Z</time>
				</trkpt>
				<trkpt lat="42.904310" lon="-0.707640">
					<ele>1365</ele>
					<time>2018-10-27T20:07:07Z</time>
				</trkpt>
				<trkpt lat="42.904080" lon="-0.707970">
					<ele>1358</ele>
					<time>2018-10-27T20:08:07Z</time>
				</trkpt>
				<trkpt lat="42.903700" lon="-0.708290">
					<ele>1357</ele>
					<time>2018-10-27T20:09:07Z</time>
				</trkpt>
				<trkpt lat="42.903390" lon="-0.708570">
					<ele>1359</ele>
					<time>2018-10-27T20:10:07Z</time>
				</trkpt>
				<trkpt lat="42.903070" lon="-0.708730">
					<ele>1369</ele>
					<time>2018-10-27T20:11:07Z</time>
				</trkpt>
				<trkpt lat="42.902870" lon="-0.709200">
					<ele>1382</ele>
					<time>2018-10-27T20:12:07Z</time>
				</trkpt>
				<trkpt lat="42.902570" lon="-0.709120">
					<ele>1393</ele>
					<time>2018-10-27T20:13:07Z</time>
				</trkpt>
				<trkpt lat="42.902010" lon="-0.709100">
					<ele>1412</ele>
					<time>2018-10-27T20:14:07Z</time>
				</trkpt>
				<trkpt lat="42.901780" lon="-0.709180">
					<ele>1420</ele>
					<time>2018-10-27T20:15:07Z</time>
				</trkpt>
				<trkpt lat="42.901400" lon="-0.709640">
					<ele>1437</ele>
					<time>2018-10-27T20:16:07Z</time>
				</trkpt>
				<trkpt lat="42.901130" lon="-0.709850">
					<ele>1443</ele>
					<time>2018-10-27T20:17:07Z</time>
				</trkpt>
				<trkpt lat="42.900740" lon="-0.710300">
					<ele>1454</ele>
					<time>2018-10-27T20:18:07Z</time>
				</trkpt>
				<trkpt lat="42.900430" lon="-0.710430">
					<ele>1461</ele>
					<time>2018-10-27T20:19:07Z</time>
				</trkpt>
				<trkpt lat="42.900070" lon="-0.710950">
					<ele>1469</ele>
					<time>2018-10-27T20:20:07Z</time>
				</trkpt>
				<trkpt lat="42.899600" lon="-0.711240">
					<ele>1479</ele>
					<time>2018-10-27T20:21:07Z</time>
				</trkpt>
				<trkpt lat="42.899240" lon="-0.711550">
					<ele>1479</ele>
					<time>2018-10-27T20:22:07Z</time>
				</trkpt>
				<trkpt lat="42.898850" lon="-0.712050">
					<ele>1488</ele>
					<time>2018-10-27T20:23:07Z</time>
				</trkpt>
				<trkpt lat="42.898620" lon="-0.712390">
					<ele>1492</ele>
					<time>2018-10-27T20:24:07Z</time>
				</trkpt>
				<trkpt lat="42.898690" lon="-0.712650">
					<ele>1499</ele>
					<time>2018-10-27T20:25:07Z</time>
				</trkpt>
				<trkpt lat="42.898960" lon="-0.712700">
					<ele>1505</ele>
					<time>2018-10-27T20:26:07Z</time>
				</trkpt>
				<trkpt lat="42.898880" lon="-0.712960">
					<ele>1511</ele>
					<time>2018-10-27T20:27:07Z</time>
				</trkpt>
				<trkpt lat="42.898670" lon="-0.713090">
					<ele>1510</ele>
					<time>2018-10-27T20:28:07Z</time>
				</trkpt>
				<trkpt lat="42.898620" lon="-0.713270">
					<ele>1514</ele>
					<time>2018-10-27T20:29:07Z</time>
				</trkpt>
				<trkpt lat="42.898900" lon="-0.713270">
					<ele>1520</ele>
					<time>2018-10-27T20:30:07Z</time>
				</trkpt>
				<trkpt lat="42.899210" lon="-0.713270">
					<ele>1527</ele>
					<time>2018-10-27T20:31:07Z</time>
				</trkpt>
				<trkpt lat="42.898970" lon="-0.713510">
					<ele>1527</ele>
					<time>2018-10-27T20:32:07Z</time>
				</trkpt>
				<trkpt lat="42.898800" lon="-0.714080">
					<ele>1539</ele>
					<time>2018-10-27T20:33:07Z</time>
				</trkpt>
				<trkpt lat="42.898710" lon="-0.714660">
					<ele>1553</ele>
					<time>2018-10-27T20:34:07Z</time>
				</trkpt>
				<trkpt lat="42.898560" lon="-0.715100">
					<ele>1558</ele>
					<time>2018-10-27T20:35:07Z</time>
				</trkpt>
				<trkpt lat="42.898530" lon="-0.715750">
					<ele>1571</ele>
					<time>2018-10-27T20:36:07Z</time>
				</trkpt>
				<trkpt lat="42.898510" lon="-0.716070">
					<ele>1577</ele>
					<time>2018-10-27T20:37:07Z</time>
				</trkpt>
				<trkpt lat="42.898040" lon="-0.716430">
					<ele>1576</ele>
					<time>2018-10-27T20:38:07Z</time>
				</trkpt>
				<trkpt lat="42.897480" lon="-0.716670">
					<ele>1579</ele>
					<time>2018-10-27T20:39:07Z</time>
				</trkpt>
				<trkpt lat="42.897160" lon="-0.717010">
					<ele>1583</ele>
					<time>2018-10-27T20:40:07Z</time>
				</trkpt>
				<trkpt lat="42.896890" lon="-0.716950">
					<ele>1581</ele>
					<time>2018-10-27T20:41:07Z</time>
				</trkpt>
				<trkpt lat="42.896420" lon="-0.716930">
					<ele>1577</ele>
					<time>2018-10-27T20:42:07Z</time>
				</trkpt>
				<trkpt lat="42.896010" lon="-0.717190">
					<ele>1581</ele>
					<time>2018-10-27T20:43:07Z</time>
				</trkpt>
				<trkpt lat="42.895650" lon="-0.717810">
					<ele>1594</ele>
					<time>2018-10-27T20:44:07Z</time>
				</trkpt>
				<trkpt lat="42.895240" lon="-0.717970">
					<ele>1606</ele>
					<time>2018-10-27T20:45:07Z</time>
				</trkpt>
				<trkpt lat="42.894810" lon="-0.717840">
					<ele>1617</ele>
					<time>2018-10-27T20:46:07Z</time>
				</trkpt>
				<trkpt lat="42.894520" lon="-0.717550">
					<ele>1623</ele>
					<time>2018-10-27T20:47:07Z</time>
				</trkpt>
				<trkpt lat="42.894300" lon="-0.716950">
					<ele>1621</ele>
					<time>2018-10-27T20:48:07Z</time>
				</trkpt>
				<trkpt lat="42.893910" lon="-0.716540">
					<ele>1631</ele>
					<time>2018-10-27T20:49:07Z</time>
				</trkpt>
				<trkpt lat="42.893440" lon="-0.716250">
					<ele>1643</ele>
					<time>2018-10-27T20:50:07Z</time>
				</trkpt>
				<trkpt lat="42.892940" lon="-0.715860">
					<ele>1651</ele>
					<time>2018-10-27T20:51:07Z</time>
				</trkpt>
				<trkpt lat="42.892470" lon="-0.715490">
					<ele>1667</ele>
					<time>2018-10-27T20:52:07Z</time>
				</trkpt>
				<trkpt lat="42.892260" lon="-0.714920">
					<ele>1672</ele>
					<time>2018-10-27T20:53:07Z</time>
				</trkpt>
				<trkpt lat="42.891820" lon="-0.714550">
					<ele>1681</ele>
					<time>2018-10-27T20:54:07Z</time>
				</trkpt>
				<trkpt lat="42.891320" lon="-0.714080">
					<ele>1707</ele>
					<time>2018-10-27T20:55:07Z</time>
				</trkpt>
				<trkpt lat="42.890910" lon="-0.713720">
					<ele>1737</ele>
					<time>2018-10-27T20:56:07Z</time>
				</trkpt>
				<trkpt lat="42.890460" lon="-0.713350">
					<ele>1756</ele>
					<time>2018-10-27T20:57:07Z</time>
				</trkpt>
				<trkpt lat="42.890140" lon="-0.712960">
					<ele>1766</ele>
					<time>2018-10-27T20:58:07Z</time>
				</trkpt>
				<trkpt lat="42.889700" lon="-0.712700">
					<ele>1785</ele>
					<time>2018-10-27T20:59:07Z</time>
				</trkpt>
				<trkpt lat="42.889510" lon="-0.712390">
					<ele>1791</ele>
					<time>2018-10-27T21:00:07Z</time>
				</trkpt>
				<trkpt lat="42.889360" lon="-0.711600">
					<ele>1795</ele>
					<time>2018-10-27T21:01:07Z</time>
				</trkpt>
				<trkpt lat="42.889180" lon="-0.710900">
					<ele>1802</ele>
					<time>2018-10-27T21:02:07Z</time>
				</trkpt>
				<trkpt lat="42.888840" lon="-0.710400">
					<ele>1818</ele>
					<time>2018-10-27T21:03:07Z</time>
				</trkpt>
				<trkpt lat="42.888520" lon="-0.709880">
					<ele>1831</ele>
					<time>2018-10-27T21:04:07Z</time>
				</trkpt>
				<trkpt lat="42.888230" lon="-0.709380">
					<ele>1849</ele>
					<time>2018-10-27T21:05:07Z</time>
				</trkpt>
				<trkpt lat="42.888140" lon="-0.709960">
					<ele>1851</ele>
					<time>2018-10-27T21:06:07Z</time>
				</trkpt>
				<trkpt lat="42.888180" lon="-0.710660">
					<ele>1859</ele>
					<time>2018-10-27T21:07:07Z</time>
				</trkpt>
				<trkpt lat="42.888370" lon="-0.711370">
					<ele>1859</ele>
					<time>2018-10-27T21:08:07Z</time>
				</trkpt>
				<trkpt lat="42.888410" lon="-0.711810">
					<ele>1862</ele>
					<time>2018-10-27T21:09:07Z</time>
				</trkpt>
				<trkpt lat="42.888430" lon="-0.712180">
					<ele>1864</ele>
					<time>2018-10-27T21:10:07Z</time>
				</trkpt>
				<trkpt lat="42.888500" lon="-0.712650">
					<ele>1862</ele>
					<time>2018-10-27T21:11:07Z</time>
				</trkpt>
				<trkpt lat="42.888610" lon="-0.713090">
					<ele>1857</ele>
					<time>2018-10-27T21:12:07Z</time>
				</trkpt>
				<trkpt lat="42.888200" lon="-0.712620">
					<ele>1884</ele>
					<time>2018-10-27T21:13:07Z</time>
				</trkpt>
				<trkpt lat="42.887890" lon="-0.711680">
					<ele>1897</ele>
					<time>2018-10-27T21:14:07Z</time>
				</trkpt>
				<trkpt lat="42.887750" lon="-0.710770">
					<ele>1889</ele>
					<time>2018-10-27T21:15:07Z</time>
				</trkpt>
				<trkpt lat="42.887550" lon="-0.710220">
					<ele>1890</ele>
					<time>2018-10-27T21:16:07Z</time>
				</trkpt>
				<trkpt lat="42.887280" lon="-0.710040">
					<ele>1899</ele>
					<time>2018-10-27T21:17:07Z</time>
				</trkpt>
				<trkpt lat="42.886880" lon="-0.709910">
					<ele>1913</ele>
					<time>2018-10-27T21:18:07Z</time>
				</trkpt>
				<trkpt lat="42.886510" lon="-0.709570">
					<ele>1917</ele>
					<time>2018-10-27T21:19:07Z</time>
				</trkpt>
				<trkpt lat="42.886150" lon="-0.709570">
					<ele>1932</ele>
					<time>2018-10-27T21:20:07Z</time>
				</trkpt>
				<trkpt lat="42.886330" lon="-0.710300">
					<ele>1950</ele>
					<time>2018-10-27T21:21:07Z</time>
				</trkpt>
				<trkpt lat="42.886580" lon="-0.710950">
					<ele>1961</ele>
					<time>2018-10-27T21:22:07Z</time>
				</trkpt>
				<trkpt lat="42.886700" lon="-0.711680">
					<ele>1975</ele>
					<time>2018-10-27T21:23:07Z</time>
				</trkpt>
				<trkpt lat="42.886630" lon="-0.712520">
					<ele>1983</ele>
					<time>2018-10-27T21:24:07Z</time>
				</trkpt>
				<trkpt lat="42.886610" lon="-0.713120">
					<ele>1977</ele>
					<time>2018-10-27T21:25:07Z</time>
				</trkpt>
				<trkpt lat="42.886520" lon="-0.713530">
					<ele>1976</ele>
					<time>2018-10-27T21:26:07Z</time>
				</trkpt>
				<trkpt lat="42.886360" lon="-0.714110">
					<ele>1977</ele>
					<time>2018-10-27T21:27:07Z</time>
				</trkpt>
				<trkpt lat="42.886200" lon="-0.713690">
					<ele>1980</ele>
					<time>2018-10-27T21:28:07Z</time>
				</trkpt>
				<trkpt lat="42.886090" lon="-0.713300">
					<ele>1985</ele>
					<time>2018-10-27T21:29:07Z</time>
				</trkpt>
				<trkpt lat="42.885970" lon="-0.712750">
					<ele>1999</ele>
					<time>2018-10-27T21:30:07Z</time>
				</trkpt>
				<trkpt lat="42.885930" lon="-0.712410">
					<ele>2005</ele>
					<time>2018-10-27T21:31:07Z</time>
				</trkpt>
				<trkpt lat="42.886000" lon="-0.712020">
					<ele>2005</ele>
					<time>2018-10-27T21:32:07Z</time>
				</trkpt>
				<trkpt lat="42.885720" lon="-0.711650">
					<ele>2011</ele>
					<time>2018-10-27T21:33:07Z</time>
				</trkpt>
				<trkpt lat="42.885360" lon="-0.711240">
					<ele>2003</ele>
					<time>2018-10-27T21:34:07Z</time>
				</trkpt>
				<trkpt lat="42.885030" lon="-0.710660">
					<ele>2005</ele>
					<time>2018-10-27T21:35:07Z</time>
				</trkpt>
				<trkpt lat="42.884760" lon="-0.710320">
					<ele>2005</ele>
					<time>2018-10-27T21:36:07Z</time>
				</trkpt>
				<trkpt lat="42.884510" lon="-0.709720">
					<ele>2013</ele>
					<time>2018-10-27T21:37:07Z</time>
				</trkpt>
				<trkpt lat="42.884370" lon="-0.709360">
					<ele>2021</ele>
					<time>2018-10-27T21:38:07Z</time>
				</trkpt>
				<trkpt lat="42.884190" lon="-0.709040">
					<ele>2030</ele>
					<time>2018-10-27T21:39:07Z</time>
				</trkpt>
				<trkpt lat="42.884100" lon="-0.708570">
					<ele>2026</ele>
					<time>2018-10-27T21:40:07Z</time>
				</trkpt>
				<trkpt lat="42.884010" lon="-0.707790">
					<ele>2019</ele>
					<time>2018-10-27T21:41:07Z</time>
				</trkpt>
				<trkpt lat="42.883870" lon="-0.707320">
					<ele>2010</ele>
					<time>2018-10-27T21:42:07Z</time>
				</trkpt>
				<trkpt lat="42.883670" lon="-0.706900">
					<ele>1998</ele>
					<time>2018-10-27T21:43:07Z</time>
				</trkpt>
				<trkpt lat="42.883420" lon="-0.706410">
					<ele>1985</ele>
					<time>2018-10-27T21:44:07Z</time>
				</trkpt>
				<trkpt lat="42.882970" lon="-0.705860">
					<ele>1963</ele>
					<time>2018-10-27T21:45:07Z</time>
				</trkpt>
				<trkpt lat="42.882640" lon="-0.705420">
					<ele>1952</ele>
					<time>2018-10-27T21:46:07Z</time>
				</trkpt>
				<trkpt lat="42.882300" lon="-0.705230">
					<ele>1935</ele>
					<time>2018-10-27T21:47:07Z</time>
				</trkpt>
				<trkpt lat="42.882120" lon="-0.704660">
					<ele>1937</ele>
					<time>2018-10-27T21:48:07Z</time>
				</trkpt>
				<trkpt lat="42.881920" lon="-0.704270">
					<ele>1937</ele>
					<time>2018-10-27T21:49:07Z</time>
				</trkpt>
				<trkpt lat="42.881940" lon="-0.703800">
					<ele>1950</ele>
					<time>2018-10-27T21:50:07Z</time>
				</trkpt>
				<trkpt lat="42.881820" lon="-0.703220">
					<ele>1956</ele>
					<time>2018-10-27T21:51:07Z</time>
				</trkpt>
				<trkpt lat="42.881550" lon="-0.703020">
					<ele>1944</ele>
					<time>2018-10-27T21:52:07Z</time>
				</trkpt>
				<trkpt lat="42.881300" lon="-0.702940">
					<ele>1934</ele>
					<time>2018-10-27T21:53:07Z</time>
				</trkpt>
				<trkpt lat="42.881170" lon="-0.702680">
					<ele>1933</ele>
					<time>2018-10-27T21:54:07Z</time>
				</trkpt>
				<trkpt lat="42.881010" lon="-0.702260">
					<ele>1944</ele>
					<time>2018-10-27T21:55:07Z</time>
				</trkpt>
				<trkpt lat="42.881080" lon="-0.701810">
					<ele>1979</ele>
					<time>2018-10-27T21:56:07Z</time>
				</trkpt>
				<trkpt lat="42.881210" lon="-0.701370">
					<ele>2014</ele>
					<time>2018-10-27T21:57:07Z</time>
				</trkpt>
				<trkpt lat="42.881310" lon="-0.701030">
					<ele>2039</ele>
					<time>2018-10-27T21:58:07Z</time>
				</trkpt>
				<trkpt lat="42.881550" lon="-0.700720">
					<ele>2060</ele>
					<time>2018-10-27T21:59:07Z</time>
				</trkpt>
				<trkpt lat="42.881750" lon="-0.700380">
					<ele>2051</ele>
					<time>2018-10-27T22:00:07Z</time>
				</trkpt>
				<trkpt lat="42.881910" lon="-0.699940">
					<ele>2022</ele>
					<time>2018-10-27T22:01:07Z</time>
				</trkpt>
				<trkpt lat="42.882100" lon="-0.699670">
					<ele>1987</ele>
					<time>2018-10-27T22:02:07Z</time>
				</trkpt>
				<trkpt lat="42.882230" lon="-0.699470">
					<ele>1964</ele>
					<time>2018-10-27T22:03:07Z</time>
				</trkpt>
				<trkpt lat="42.882390" lon="-0.699260">
					<ele>1936</ele>
					<time>2018-10-27T22:04:07Z</time>
				</trkpt>
				<trkpt lat="42.882630" lon="-0.699200">
					<ele>1911</ele>
					<time>2018-10-27T22:05:07Z</time>
				</trkpt>
				<trkpt lat="42.882770" lon="-0.699020">
					<ele>1899</ele>
					<time>2018-10-27T22:06:07Z</time>
				</trkpt>
				<trkpt lat="42.882970" lon="-0.698730">
					<ele>1882</ele>
					<time>2018-10-27T22:07:07Z</time>
				</trkpt>
				<trkpt lat="42.883180" lon="-0.698470">
					<ele>1864</ele>
					<time>2018-10-27T22:08:07Z</time>
				</trkpt>
				<trkpt lat="42.883340" lon="-0.698000">
					<ele>1846</ele>
					<time>2018-10-27T22:09:07Z</time>
				</trkpt>
				<trkpt lat="42.883380" lon="-0.697460">
					<ele>1835</ele>
					<time>2018-10-27T22:10:07Z</time>
				</trkpt>
				<trkpt lat="42.883510" lon="-0.696960">
					<ele>1816</ele>
					<time>2018-10-27T22:11:07Z</time>
				</trkpt>
				<trkpt lat="42.883700" lon="-0.696490">
					<ele>1802</ele>
					<time>2018-10-27T22:12:07Z</time>
				</trkpt>
				<trkpt lat="42.884080" lon="-0.696490">
					<ele>1780</ele>
					<time>2018-10-27T22:13:07Z</time>
				</trkpt>
				<trkpt lat="42.884400" lon="-0.696410">
					<ele>1772</ele>
					<time>2018-10-27T22:14:07Z</time>
				</trkpt>
				<trkpt lat="42.884850" lon="-0.696020">
					<ele>1759</ele>
					<time>2018-10-27T22:15:07Z</time>
				</trkpt>
				<trkpt lat="42.885230" lon="-0.695730">
					<ele>1745</ele>
					<time>2018-10-27T22:16:07Z</time>
				</trkpt>
				<trkpt lat="42.885520" lon="-0.695500">
					<ele>1733</ele>
					<time>2018-10-27T22:17:07Z</time>
				</trkpt>
				<trkpt lat="42.885810" lon="-0.695260">
					<ele>1714</ele>
					<time>2018-10-27T22:18:07Z</time>
				</trkpt>
				<trkpt lat="42.886060" lon="-0.695000">
					<ele>1695</ele>
					<time>2018-10-27T22:19:07Z</time>
				</trkpt>
				<trkpt lat="42.886290" lon="-0.694740">
					<ele>1685</ele>
					<time>2018-10-27T22:20:07Z</time>
				</trkpt>
				<trkpt lat="42.886490" lon="-0.694450">
					<ele>1673</ele>
					<time>2018-10-27T22:21:07Z</time>
				</trkpt>
				<trkpt lat="42.886720" lon="-0.694040">
					<ele>1661</ele>
					<time>2018-10-27T22:22:07Z</time>
				</trkpt>
				<trkpt lat="42.886990" lon="-0.693750">
					<ele>1657</ele>
					<time>2018-10-27T22:23:07Z</time>
				</trkpt>
				<trkpt lat="42.887310" lon="-0.693490">
					<ele>1648</ele>
					<time>2018-10-27T22:24:07Z</time>
				</trkpt>
				<trkpt lat="42.887570" lon="-0.693280">
					<ele>1641</ele>
					<time>2018-10-27T22:25:07Z</time>
				</trkpt>
				<trkpt lat="42.887870" lon="-0.693050">
					<ele>1635</ele>
					<time>2018-10-27T22:26:07Z</time>
				</trkpt>
				<trkpt lat="42.888020" lon="-0.692650">
					<ele>1635</ele>
					<time>2018-10-27T22:27:07Z</time>
				</trkpt>
				<trkpt lat="42.888120" lon="-0.692440">
					<ele>1632</ele>
					<time>2018-10-27T22:28:07Z</time>
				</trkpt>
				<trkpt lat="42.888300" lon="-0.691970">
					<ele>1619</ele>
					<time>2018-10-27T22:29:07Z</time>
				</trkpt>
				<trkpt lat="42.888630" lon="-0.691400">
					<ele>1613</ele>
					<time>2018-10-27T22:30:07Z</time>
				</trkpt>
				<trkpt lat="42.888880" lon="-0.691010">
					<ele>1607</ele>
					<time>2018-10-27T22:31:07Z</time>
				</trkpt>
				<trkpt lat="42.889220" lon="-0.690620">
					<ele>1595</ele>
					<time>2018-10-27T22:32:07Z</time>
				</trkpt>
				<trkpt lat="42.889580" lon="-0.690330">
					<ele>1585</ele>
					<time>2018-10-27T22:33:07Z</time>
				</trkpt>
				<trkpt lat="42.889740" lon="-0.689700">
					<ele>1572</ele>
					<time>2018-10-27T22:34:07Z</time>
				</trkpt>
				<trkpt lat="42.890060" lon="-0.689440">
					<ele>1562</ele>
					<time>2018-10-27T22:35:07Z</time>
				</trkpt>
				<trkpt lat="42.890510" lon="-0.689160">
					<ele>1552</ele>
					<time>2018-10-27T22:36:07Z</time>
				</trkpt>
				<trkpt lat="42.890400" lon="-0.688560">
					<ele>1545</ele>
					<time>2018-10-27T22:37:07Z</time>
				</trkpt>
				<trkpt lat="42.890400" lon="-0.687980">
					<ele>1539</ele>
					<time>2018-10-27T22:38:07Z</time>
				</trkpt>
				<trkpt lat="42.890440" lon="-0.687460">
					<ele>1535</ele>
					<time>2018-10-27T22:39:07Z</time>
				</trkpt>
				<trkpt lat="42.890690" lon="-0.687220">
					<ele>1531</ele>
					<time>2018-10-27T22:40:07Z</time>
				</trkpt>
				<trkpt lat="42.891020" lon="-0.687220">
					<ele>1525</ele>
					<time>2018-10-27T22:41:07Z</time>
				</trkpt>
				<trkpt lat="42.891340" lon="-0.687220">
					<ele>1519</ele>
					<time>2018-10-27T22:42:07Z</time>
				</trkpt>
				<trkpt lat="42.891790" lon="-0.687090">
					<ele>1510</ele>
					<time>2018-10-27T22:43:07Z</time>
				</trkpt>
				<trkpt lat="42.892200" lon="-0.687020">
					<ele>1500</ele>
					<time>2018-10-27T22:44:07Z</time>
				</trkpt>
				<trkpt lat="42.892630" lon="-0.686960">
					<ele>1490</ele>
					<time>2018-10-27T22:45:07Z</time>
				</trkpt>
				<trkpt lat="42.893060" lon="-0.686910">
					<ele>1483</ele>
					<time>2018-10-27T22:46:07Z</time>
				</trkpt>
				<trkpt lat="42.893600" lon="-0.686910">
					<ele>1475</ele>
					<time>2018-10-27T22:47:07Z</time>
				</trkpt>
				<trkpt lat="42.894000" lon="-0.686730">
					<ele>1474</ele>
					<time>2018-10-27T22:48:07Z</time>
				</trkpt>
				<trkpt lat="42.894340" lon="-0.686730">
					<ele>1471</ele>
					<time>2018-10-27T22:49:07Z</time>
				</trkpt>
				<trkpt lat="42.894680" lon="-0.686730">
					<ele>1469</ele>
					<time>2018-10-27T22:50:07Z</time>
				</trkpt>
				<trkpt lat="42.895290" lon="-0.686910">
					<ele>1464</ele>
					<time>2018-10-27T22:51:07Z</time>
				</trkpt>
				<trkpt lat="42.895740" lon="-0.687170">
					<ele>1455</ele>
					<time>2018-10-27T22:52:07Z</time>
				</trkpt>
				<trkpt lat="42.895960" lon="-0.687300">
					<ele>1449</ele>
					<time>2018-10-27T22:53:07Z</time>
				</trkpt>
				<trkpt lat="42.896210" lon="-0.687300">
					<ele>1448</ele>
					<time>2018-10-27T22:54:07Z</time>
				</trkpt>
				<trkpt lat="42.896480" lon="-0.687590">
					<ele>1437</ele>
					<time>2018-10-27T22:55:07Z</time>
				</trkpt>
				<trkpt lat="42.896800" lon="-0.688010">
					<ele>1421</ele>
					<time>2018-10-27T22:56:07Z</time>
				</trkpt>
				<trkpt lat="42.897140" lon="-0.688060">
					<ele>1416</ele>
					<time>2018-10-27T22:57:07Z</time>
				</trkpt>
				<trkpt lat="42.897480" lon="-0.688350">
					<ele>1401</ele>
					<time>2018-10-27T22:58:07Z</time>
				</trkpt>
				<trkpt lat="42.897820" lon="-0.688350">
					<ele>1397</ele>
					<time>2018-10-27T22:59:07Z</time>
				</trkpt>
				<trkpt lat="42.898110" lon="-0.688430">
					<ele>1392</ele>
					<time>2018-10-27T23:00:07Z</time>
				</trkpt>
				<trkpt lat="42.898400" lon="-0.688430">
					<ele>1389</ele>
					<time>2018-10-27T23:01:07Z</time>
				</trkpt>
				<trkpt lat="42.898760" lon="-0.688480">
					<ele>1383</ele>
					<time>2018-10-27T23:02:07Z</time>
				</trkpt>
				<trkpt lat="42.899010" lon="-0.688580">
					<ele>1376</ele>
					<time>2018-10-27T23:03:07Z</time>
				</trkpt>
				<trkpt lat="42.899480" lon="-0.688500">
					<ele>1374</ele>
					<time>2018-10-27T23:04:07Z</time>
				</trkpt>
				<trkpt lat="42.899690" lon="-0.688500">
					<ele>1372</ele>
					<time>2018-10-27T23:05:07Z</time>
				</trkpt>
				<trkpt lat="42.900090" lon="-0.688820">
					<ele>1354</ele>
					<time>2018-10-27T23:06:07Z</time>
				</trkpt>
				<trkpt lat="42.900450" lon="-0.688950">
					<ele>1343</ele>
					<time>2018-10-27T23:07:07Z</time>
				</trkpt>
				<trkpt lat="42.900840" lon="-0.688920">
					<ele>1338</ele>
					<time>2018-10-27T23:08:07Z</time>
				</trkpt>
				<trkpt lat="42.901200" lon="-0.688970">
					<ele>1320</ele>
					<time>2018-10-27T23:09:07Z</time>
				</trkpt>
				<trkpt lat="42.901470" lon="-0.688920">
					<ele>1309</ele>
					<time>2018-10-27T23:10:07Z</time>
				</trkpt>
				<trkpt lat="42.901740" lon="-0.688660">
					<ele>1299</ele>
					<time>2018-10-27T23:11:07Z</time>
				</trkpt>
				<trkpt lat="42.901940" lon="-0.688400">
					<ele>1292</ele>
					<time>2018-10-27T23:12:07Z</time>
				</trkpt>
				<trkpt lat="42.902230" lon="-0.688290">
					<ele>1277</ele>
					<time>2018-10-27T23:13:07Z</time>
				</trkpt>
				<trkpt lat="42.902680" lon="-0.688220">
					<ele>1259</ele>
					<time>2018-10-27T23:14:07Z</time>
				</trkpt>
				<trkpt lat="42.903000" lon="-0.688160">
					<ele>1252</ele>
					<time>2018-10-27T23:15:07Z</time>
				</trkpt>
				<trkpt lat="42.903480" lon="-0.688160">
					<ele>1240</ele>
					<time>2018-10-27T23:16:07Z</time>
				</trkpt>
				<trkpt lat="42.903830" lon="-0.688090">
					<ele>1232</ele>
					<time>2018-10-27T23:17:07Z</time>
				</trkpt>
				<trkpt lat="42.904130" lon="-0.688060">
					<ele>1225</ele>
					<time>2018-10-27T23:18:07Z</time>
				</trkpt>
				<trkpt lat="42.904530" lon="-0.688030">
					<ele>1214</ele>
					<time>2018-10-27T23:19:07Z</time>
				</trkpt>
				<trkpt lat="42.904870" lon="-0.687900">
					<ele>1206</ele>
					<time>2018-10-27T23:20:07Z</time>
				</trkpt>
				<trkpt lat="42.905030" lon="-0.687850">
					<ele>1202</ele>
					<time>2018-10-27T23:21:07Z</time>
				</trkpt>
				<trkpt lat="42.905280" lon="-0.687850">
					<ele>1193</ele>
					<time>2018-10-27T23:22:07Z</time>
				</trkpt>
				<trkpt lat="42.905530" lon="-0.687850">
					<ele>1185</ele>
					<time>2018-10-27T23:23:07Z</time>
				</trkpt>
				<trkpt lat="42.905770" lon="-0.687690">
					<ele>1176</ele>
					<time>2018-10-27T23:24:07Z</time>
				</trkpt>
				<trkpt lat="42.905890" lon="-0.687590">
					<ele>1171</ele>
					<time>2018-10-27T23:25:07Z</time>
				</trkpt>
				<trkpt lat="42.906230" lon="-0.687590">
					<ele>1162</ele>
					<time>2018-10-27T23:26:07Z</time>
				</trkpt>
				<trkpt lat="42.906340" lon="-0.687850">
					<ele>1162</ele>
					<time>2018-10-27T23:27:07Z</time>
				</trkpt>
				<trkpt lat="42.906540" lon="-0.688060">
					<ele>1160</ele>
					<time>2018-10-27T23:28:07Z</time>
				</trkpt>
				<trkpt lat="42.906770" lon="-0.688430">
					<ele>1163</ele>
					<time>2018-10-27T23:29:07Z</time>
				</trkpt>
				<trkpt lat="42.906750" lon="-0.689000">
					<ele>1169</ele>
					<time>2018-10-27T23:30:07Z</time>
				</trkpt>
				<trkpt lat="42.906720" lon="-0.689310">
					<ele>1172</ele>
					<time>2018-10-27T23:31:07Z</time>
				</trkpt>
				<trkpt lat="42.906380" lon="-0.689390">
					<ele>1174</ele>
					<time>2018-10-27T23:32:07Z</time>
				</trkpt>
				<trkpt lat="42.906130" lon="-0.689680">
					<ele>1177</ele>
					<time>2018-10-27T23:33:07Z</time>
				</trkpt>
				<trkpt lat="42.905980" lon="-0.690070">
					<ele>1177</ele>
					<time>2018-10-27T23:34:07Z</time>
				</trkpt>
				<trkpt lat="42.905870" lon="-0.690250">
					<ele>1177</ele>
					<time>2018-10-27T23:35:07Z</time>
				</trkpt>
				<trkpt lat="42.905620" lon="-0.690570">
					<ele>1181</ele>
					<time>2018-10-27T23:36:07Z</time>
				</trkpt>
				<trkpt lat="42.905600" lon="-0.691040">
					<ele>1185</ele>
					<time>2018-10-27T23:37:07Z</time>
				</trkpt>
				<trkpt lat="42.905510" lon="-0.691610">
					<ele>1194</ele>
					<time>2018-10-27T23:38:07Z</time>
				</trkpt>		</trkseg>
	</trk>
</gpx>